Time;durP1;ratioP1;P1;durP2;ratioP2;P2;SDS_P1;SDS_P2;PMS_P1;PMS_P2;Temp;Humidity;BMP_temperature;BMP_pressure;BME280_temperature;BME280_humidity;BME280_pressure;Samples;Min_cycle;Max_cycle;Signal;HPM_P1;HPM_P2
2021/09/27 00:00:42;;;;;;;16.93;12.50;;;18.10;99.90;;;;;;5029579;28;20192;-67
2021/09/27 00:03:08;;;;;;;14.30;12.80;;;18.10;99.90;;;;;;5023808;28;20287;-67
2021/09/27 00:05:34;;;;;;;14.70;12.50;;;18.00;99.90;;;;;;5007942;28;20594;-67
2021/09/27 00:08:00;;;;;;;18.83;13.10;;;17.90;99.90;;;;;;5028942;28;21043;-68
2021/09/27 00:10:36;;;;;;;14.90;11.97;;;18.00;99.90;;;;;;5026190;28;20443;-70
2021/09/27 00:13:03;;;;;;;16.40;12.47;;;18.10;99.90;;;;;;5026735;28;20192;-70
2021/09/27 00:15:38;;;;;;;20.03;13.57;;;18.00;99.90;;;;;;5009952;28;20415;-70
2021/09/27 00:18:07;;;;;;;17.00;14.10;;;17.80;99.90;;;;;;5026708;28;20445;-69
2021/09/27 00:20:37;;;;;;;15.60;13.00;;;17.90;99.90;;;;;;5009307;28;20428;-70
2021/09/27 00:23:02;;;;;;;18.13;13.60;;;18.00;99.90;;;;;;5026636;28;20420;-68
2021/09/27 00:25:28;;;;;;;15.40;13.20;;;18.00;99.90;;;;;;5025414;28;20414;-68
2021/09/27 00:27:55;;;;;;;16.00;14.03;;;17.90;99.90;;;;;;5021927;28;20303;-68
2021/09/27 00:30:21;;;;;;;14.70;11.70;;;18.10;99.90;;;;;;5009746;28;20439;-67
2021/09/27 00:32:47;;;;;;;19.50;12.90;;;18.10;99.90;;;;;;5006563;28;20978;-67
2021/09/27 00:35:16;;;;;;;13.63;12.03;;;18.20;99.90;;;;;;5027802;28;20851;-67
2021/09/27 00:37:42;;;;;;;16.90;13.10;;;18.30;99.90;;;;;;5023482;28;20925;-69
2021/09/27 00:40:10;;;;;;;15.93;11.70;;;18.10;99.90;;;;;;5028484;28;20527;-70
2021/09/27 00:42:36;;;;;;;17.60;13.47;;;18.30;99.90;;;;;;5025896;28;20287;-69
2021/09/27 00:45:03;;;;;;;15.33;13.70;;;18.00;99.90;;;;;;5023753;28;20531;-67
2021/09/27 00:47:28;;;;;;;16.33;12.93;;;18.00;99.90;;;;;;5027708;28;20230;-67
2021/09/27 00:49:56;;;;;;;17.40;13.80;;;18.00;99.90;;;;;;5026221;28;20423;-68
2021/09/27 00:52:21;;;;;;;15.20;12.80;;;18.00;99.90;;;;;;5021239;28;20192;-68
2021/09/27 00:54:48;;;;;;;18.80;14.00;;;18.00;99.90;;;;;;5008430;28;20423;-68
2021/09/27 00:57:22;;;;;;;19.17;14.67;;;17.90;99.90;;;;;;5022404;28;20212;-68
2021/09/27 00:59:51;;;;;;;17.13;13.67;;;17.80;99.90;;;;;;5026502;28;20428;-67
2021/09/27 01:02:17;;;;;;;18.63;13.57;;;17.80;99.90;;;;;;5026322;28;20492;-67
2021/09/27 01:04:43;;;;;;;15.70;13.57;;;17.80;99.90;;;;;;5023279;28;20518;-67
2021/09/27 01:07:25;;;;;;;18.50;14.70;;;18.00;99.90;;;;;;5027510;28;20438;-67
2021/09/27 01:10:21;;;;;;;20.03;14.30;;;18.00;99.90;;;;;;5024317;28;20944;-65
2021/09/27 01:13:18;;;;;;;17.83;14.07;;;17.90;99.90;;;;;;5024599;28;22054;-67
2021/09/27 01:15:47;;;;;;;20.90;14.63;;;17.90;99.90;;;;;;5025945;28;20518;-65
2021/09/27 01:18:15;;;;;;;19.57;14.13;;;17.70;99.90;;;;;;5028614;28;20601;-68
2021/09/27 01:21:02;;;;;;;18.50;15.17;;;17.70;99.90;;;;;;5023747;28;20435;-68
2021/09/27 01:23:55;;;;;;;17.40;13.60;;;17.70;99.90;;;;;;5006643;28;20477;-68
2021/09/27 01:27:00;;;;;;;17.07;13.90;;;17.80;99.90;;;;;;5026954;28;20442;-68
2021/09/27 01:29:46;;;;;;;18.30;14.30;;;18.00;99.90;;;;;;5027499;28;20434;-65
2021/09/27 01:32:36;;;;;;;18.83;14.70;;;18.00;99.90;;;;;;5027221;28;20431;-66
2021/09/27 01:35:41;;;;;;;20.73;15.07;;;17.90;99.90;;;;;;5022632;28;20430;-66
2021/09/27 01:38:27;;;;;;;18.57;15.23;;;18.00;99.90;;;;;;5026535;28;20536;-67
2021/09/27 01:41:04;;;;;;;19.13;14.90;;;18.00;99.90;;;;;;5024722;28;20786;-67
2021/09/27 01:43:55;;;;;;;18.13;14.37;;;18.00;99.90;;;;;;5024045;28;20451;-70
2021/09/27 01:46:44;;;;;;;18.77;13.50;;;18.00;99.90;;;;;;5022969;28;20887;-70
2021/09/27 01:49:20;;;;;;;20.07;14.40;;;18.00;99.90;;;;;;5026034;28;20504;-70
2021/09/27 01:52:03;;;;;;;19.50;15.17;;;18.00;99.90;;;;;;5024606;28;20847;-70
2021/09/27 01:54:40;;;;;;;19.73;14.63;;;17.90;99.90;;;;;;5022777;28;20438;-70
2021/09/27 01:57:21;;;;;;;19.77;16.60;;;17.90;99.90;;;;;;5024580;28;20455;-70
2021/09/27 02:00:03;;;;;;;21.63;14.20;;;17.70;99.90;;;;;;5022928;28;20676;-69
2021/09/27 02:02:54;;;;;;;18.53;15.17;;;17.70;99.90;;;;;;5025749;28;20538;-67
2021/09/27 02:05:49;;;;;;;18.53;14.10;;;17.80;99.90;;;;;;5026062;28;20424;-67
2021/09/27 02:08:54;;;;;;;20.10;15.07;;;17.80;99.90;;;;;;5029450;28;20442;-67
2021/09/27 02:11:32;;;;;;;19.43;15.27;;;17.70;99.90;;;;;;5008107;28;20423;-67
2021/09/27 02:14:14;;;;;;;17.23;15.33;;;17.70;99.90;;;;;;5007878;28;20961;-67
2021/09/27 02:17:07;;;;;;;23.10;16.63;;;17.60;99.90;;;;;;5012667;28;20988;-70
2021/09/27 02:19:33;;;;;;;16.90;14.87;;;17.50;99.90;;;;;;5022212;28;20789;-70
2021/09/27 02:22:36;;;;;;;17.63;15.17;;;17.60;99.90;;;;;;5023109;28;20423;-71
2021/09/27 02:25:31;;;;;;;19.13;14.53;;;17.70;99.90;;;;;;5025558;28;20546;-68
2021/09/27 02:27:59;;;;;;;17.17;14.10;;;17.70;99.90;;;;;;5021005;28;20969;-70
2021/09/27 02:30:48;;;;;;;19.50;14.07;;;17.60;99.90;;;;;;5006648;28;20806;-70
2021/09/27 02:33:33;;;;;;;16.77;13.70;;;17.60;99.90;;;;;;5025409;28;20554;-68
2021/09/27 02:36:09;;;;;;;18.13;14.97;;;17.60;99.90;;;;;;5024210;28;20502;-68
2021/09/27 02:38:38;;;;;;;18.97;15.13;;;17.50;99.90;;;;;;5021170;28;20545;-68
2021/09/27 02:41:24;;;;;;;19.60;15.30;;;17.50;99.90;;;;;;5021934;28;20428;-68
2021/09/27 02:43:50;;;;;;;19.63;15.50;;;17.50;99.90;;;;;;5008815;28;20439;-68
2021/09/27 02:46:19;;;;;;;18.60;14.97;;;17.50;99.90;;;;;;5022278;28;20482;-68
2021/09/27 02:49:07;;;;;;;18.40;14.30;;;17.50;99.90;;;;;;5026079;28;20204;-67
2021/09/27 02:51:43;;;;;;;19.37;15.83;;;17.50;99.90;;;;;;5022077;28;20423;-67
2021/09/27 02:54:11;;;;;;;18.80;14.87;;;17.40;99.90;;;;;;5023206;28;20418;-67
2021/09/27 02:56:53;;;;;;;20.07;14.97;;;17.40;99.90;;;;;;5020990;28;21004;-67
2021/09/27 02:59:47;;;;;;;19.40;15.17;;;17.40;99.90;;;;;;5024493;28;20413;-67
2021/09/27 03:02:22;;;;;;;21.20;17.20;;;17.50;99.90;;;;;;5007684;28;20862;-65
2021/09/27 03:05:00;;;;;;;20.17;15.40;;;17.50;99.90;;;;;;5022231;28;20426;-65
2021/09/27 03:07:44;;;;;;;19.93;15.20;;;17.40;99.90;;;;;;5025253;28;20446;-65
2021/09/27 03:10:15;;;;;;;20.00;14.87;;;17.30;99.90;;;;;;5024782;28;20427;-64
2021/09/27 03:12:44;;;;;;;20.00;16.57;;;17.40;99.90;;;;;;5005578;28;20539;-65
2021/09/27 03:15:36;;;;;;;17.60;13.63;;;17.40;99.90;;;;;;5004790;28;20439;-65
2021/09/27 03:18:17;;;;;;;22.10;15.27;;;17.40;99.90;;;;;;5007181;28;20467;-69
2021/09/27 03:21:16;;;;;;;20.87;14.40;;;17.30;99.90;;;;;;5022627;28;20439;-69
2021/09/27 03:24:02;;;;;;;21.20;14.53;;;17.30;99.90;;;;;;5022013;28;20534;-70
2021/09/27 03:27:05;;;;;;;17.90;14.13;;;17.40;99.90;;;;;;5025621;28;20426;-70
2021/09/27 03:29:59;;;;;;;21.30;16.30;;;17.30;99.90;;;;;;5023787;28;20520;-70
2021/09/27 03:32:56;;;;;;;21.23;15.27;;;17.20;99.90;;;;;;5025973;28;20427;-70
2021/09/27 03:35:43;;;;;;;22.30;15.40;;;17.20;99.90;;;;;;5027878;28;20488;-70
2021/09/27 03:38:20;;;;;;;18.27;13.57;;;17.10;99.90;;;;;;5012698;28;20451;-69
2021/09/27 03:41:20;;;;;;;21.70;15.80;;;17.20;99.90;;;;;;5023805;28;20887;-70
2021/09/27 03:44:13;;;;;;;20.07;15.67;;;17.10;99.90;;;;;;5006747;28;20434;-70
2021/09/27 03:47:06;;;;;;;22.20;16.30;;;16.90;99.90;;;;;;5024993;28;20515;-70
2021/09/27 03:50:13;;;;;;;22.97;15.63;;;16.90;99.90;;;;;;5027934;28;20497;-70
2021/09/27 03:52:58;;;;;;;23.33;16.20;;;17.00;99.90;;;;;;4986528;28;20428;-69
2021/09/27 03:55:49;;;;;;;19.80;15.27;;;16.90;99.90;;;;;;4986493;28;20443;-67
2021/09/27 03:58:40;;;;;;;19.30;14.77;;;16.90;99.90;;;;;;5015191;28;20471;-69
2021/09/27 04:01:17;;;;;;;26.67;16.40;;;16.80;99.90;;;;;;5011073;28;20458;-65
2021/09/27 04:04:08;;;;;;;20.47;15.73;;;16.90;99.90;;;;;;5013355;28;20431;-65
2021/09/27 04:07:01;;;;;;;23.93;16.00;;;16.80;99.90;;;;;;5025002;28;20482;-67
2021/09/27 04:09:49;;;;;;;22.50;16.00;;;16.80;99.90;;;;;;5027981;28;20431;-65
2021/09/27 04:12:33;;;;;;;21.80;14.90;;;16.80;99.90;;;;;;5027071;28;20447;-65
2021/09/27 04:15:27;;;;;;;22.60;16.57;;;16.90;99.90;;;;;;5025170;28;20804;-65
2021/09/27 04:18:15;;;;;;;20.10;15.53;;;16.90;99.90;;;;;;5004229;28;20567;-70
2021/09/27 04:20:59;;;;;;;20.77;14.70;;;17.00;99.90;;;;;;5027252;28;20800;-65
2021/09/27 04:23:55;;;;;;;26.37;16.03;;;16.90;99.90;;;;;;5025997;28;20427;-64
2021/09/27 04:26:45;;;;;;;20.20;16.47;;;16.90;99.90;;;;;;5024620;28;20463;-65
2021/09/27 04:29:10;;;;;;;23.33;15.37;;;16.90;99.90;;;;;;5025182;28;20435;-65
2021/09/27 04:31:56;;;;;;;23.67;16.23;;;16.80;99.90;;;;;;5027397;28;21011;-65
2021/09/27 04:34:36;;;;;;;19.80;15.20;;;17.10;99.90;;;;;;5024595;28;20626;-70
2021/09/27 04:37:02;;;;;;;20.40;16.57;;;17.10;99.90;;;;;;5024305;28;20494;-70
2021/09/27 04:39:32;;;;;;;21.90;16.47;;;17.00;99.90;;;;;;5009499;28;20945;-70
2021/09/27 04:42:25;;;;;;;20.93;14.93;;;17.10;99.90;;;;;;5024993;28;20450;-67
2021/09/27 04:45:01;;;;;;;23.23;15.40;;;17.10;99.90;;;;;;5022288;28;20822;-65
2021/09/27 04:47:48;;;;;;;20.00;16.00;;;17.10;99.90;;;;;;5011226;28;20474;-67
2021/09/27 04:50:32;;;;;;;18.67;15.77;;;17.20;99.90;;;;;;5008993;28;20431;-66
2021/09/27 04:53:35;;;;;;;21.07;16.07;;;17.10;99.90;;;;;;5022368;28;20454;-67
2021/09/27 04:56:44;;;;;;;19.80;15.00;;;17.20;99.90;;;;;;5026180;28;20953;-67
2021/09/27 04:59:37;;;;;;;19.30;15.00;;;17.20;99.90;;;;;;5026934;28;20831;-67
2021/09/27 05:02:27;;;;;;;19.03;14.77;;;17.20;99.90;;;;;;5023248;28;20624;-67
2021/09/27 05:05:07;;;;;;;24.83;14.97;;;17.20;99.90;;;;;;5007287;28;21185;-67
2021/09/27 05:08:05;;;;;;;17.50;14.30;;;17.20;99.90;;;;;;5025951;28;20501;-66
2021/09/27 05:10:43;;;;;;;19.87;15.73;;;17.30;99.90;;;;;;5028381;28;20969;-69
2021/09/27 05:13:36;;;;;;;23.43;14.47;;;17.30;99.90;;;;;;5025431;28;20422;-70
2021/09/27 05:16:31;;;;;;;18.90;15.30;;;17.30;99.90;;;;;;5008350;28;20453;-69
2021/09/27 05:19:30;;;;;;;20.30;16.17;;;17.20;99.90;;;;;;4996543;28;20448;-68
2021/09/27 05:22:37;;;;;;;18.90;14.60;;;17.30;99.90;;;;;;5026939;28;20446;-67
2021/09/27 05:25:25;;;;;;;20.50;14.93;;;17.20;99.90;;;;;;5024118;28;20418;-67
2021/09/27 05:28:10;;;;;;;19.60;15.33;;;17.00;99.90;;;;;;5023838;28;20479;-68
2021/09/27 05:30:50;;;;;;;17.57;14.40;;;17.10;99.90;;;;;;5030141;28;20438;-67
2021/09/27 05:33:34;;;;;;;20.47;15.10;;;17.10;99.90;;;;;;5024569;28;20411;-64
2021/09/27 05:36:00;;;;;;;20.73;15.17;;;17.10;99.90;;;;;;5024895;28;20434;-70
2021/09/27 05:38:28;;;;;;;19.80;14.20;;;17.10;99.90;;;;;;5027649;28;20459;-70
2021/09/27 05:41:10;;;;;;;17.70;14.97;;;17.10;99.90;;;;;;5025609;28;20242;-70
2021/09/27 05:44:09;;;;;;;25.07;15.83;;;17.10;99.90;;;;;;5025091;28;20510;-70
2021/09/27 05:46:34;;;;;;;22.37;15.47;;;17.00;99.90;;;;;;5024109;28;20781;-70
2021/09/27 05:49:09;;;;;;;20.40;16.17;;;17.10;99.90;;;;;;5026176;28;20420;-65
2021/09/27 05:51:52;;;;;;;21.07;14.93;;;17.20;99.90;;;;;;5025859;28;20192;-65
2021/09/27 05:54:48;;;;;;;21.03;16.00;;;17.30;99.90;;;;;;5022886;28;20438;-64
2021/09/27 05:57:41;;;;;;;21.17;16.07;;;17.20;99.90;;;;;;5023661;28;20463;-65
2021/09/27 06:00:19;;;;;;;21.77;16.83;;;17.20;99.90;;;;;;5024797;28;20524;-70
2021/09/27 06:03:00;;;;;;;21.27;16.40;;;17.10;99.90;;;;;;5023422;28;20627;-70
2021/09/27 06:05:55;;;;;;;20.20;14.80;;;17.00;99.90;;;;;;5025007;28;20843;-65
2021/09/27 06:08:43;;;;;;;18.67;14.60;;;17.20;99.90;;;;;;5020999;28;20455;-67
2021/09/27 06:11:50;;;;;;;20.03;15.17;;;17.30;99.90;;;;;;5022932;28;20431;-68
2021/09/27 06:14:17;;;;;;;20.07;13.80;;;17.40;99.90;;;;;;4945893;28;20530;-68
2021/09/27 06:17:23;;;;;;;19.17;13.70;;;17.20;99.90;;;;;;5008148;28;20926;-68
2021/09/27 06:20:10;;;;;;;18.90;14.83;;;17.30;99.90;;;;;;5025828;28;20473;-68
2021/09/27 06:22:36;;;;;;;16.07;13.70;;;17.30;99.90;;;;;;5023610;28;20833;-65
2021/09/27 06:25:51;;;;;;;17.90;13.43;;;17.40;99.90;;;;;;5023074;28;20440;-66
2021/09/27 06:28:31;;;;;;;16.87;13.60;;;17.30;99.90;;;;;;5000247;28;20224;-65
2021/09/27 06:31:09;;;;;;;16.23;13.53;;;17.30;99.90;;;;;;5023230;28;20484;-65
2021/09/27 06:33:54;;;;;;;16.50;12.90;;;17.20;99.90;;;;;;5023151;28;20424;-65
2021/09/27 06:36:23;;;;;;;19.27;13.47;;;17.00;99.90;;;;;;5025286;28;20754;-68
2021/09/27 06:38:58;;;;;;;17.80;14.37;;;17.10;99.90;;;;;;5023813;28;20484;-68
2021/09/27 06:41:26;;;;;;;18.40;13.30;;;17.20;99.90;;;;;;5024113;28;20421;-68
2021/09/27 06:43:52;;;;;;;18.27;12.20;;;17.30;99.90;;;;;;5022556;28;20446;-67
2021/09/27 06:46:19;;;;;;;19.53;12.70;;;17.40;99.90;;;;;;5024468;28;20485;-67
2021/09/27 06:48:46;;;;;;;15.87;13.10;;;17.50;99.90;;;;;;5009853;28;20450;-65
2021/09/27 06:51:12;;;;;;;16.23;13.53;;;17.60;99.90;;;;;;5024571;28;20929;-66
2021/09/27 06:53:38;;;;;;;16.63;13.40;;;17.50;99.90;;;;;;5024041;28;20447;-66
2021/09/27 06:56:05;;;;;;;18.83;14.03;;;17.50;99.90;;;;;;5007631;28;20430;-67
2021/09/27 06:58:31;;;;;;;21.30;14.00;;;17.60;99.90;;;;;;5022991;28;20447;-67
2021/09/27 07:00:57;;;;;;;18.50;13.80;;;17.90;99.90;;;;;;5021624;28;20835;-67
2021/09/27 07:03:23;;;;;;;16.80;14.00;;;18.00;99.90;;;;;;5024872;28;20443;-69
2021/09/27 07:05:50;;;;;;;18.77;14.40;;;17.90;99.90;;;;;;5023462;28;20431;-68
2021/09/27 07:08:18;;;;;;;17.37;13.30;;;17.90;99.90;;;;;;5024199;28;20439;-68
2021/09/27 07:10:44;;;;;;;15.50;13.70;;;17.80;99.90;;;;;;5026828;28;21059;-68
2021/09/27 07:13:11;;;;;;;14.17;12.67;;;17.90;99.90;;;;;;5028183;28;20462;-68
2021/09/27 07:15:38;;;;;;;17.07;13.27;;;17.80;99.90;;;;;;5032338;28;20200;-68
2021/09/27 07:18:04;;;;;;;16.83;13.17;;;17.80;99.90;;;;;;5012609;28;20533;-68
2021/09/27 07:20:30;;;;;;;16.80;12.73;;;17.70;99.90;;;;;;5007688;28;20451;-67
2021/09/27 07:22:57;;;;;;;17.07;13.00;;;17.80;99.90;;;;;;5030205;28;20486;-67
2021/09/27 07:25:27;;;;;;;17.90;13.33;;;17.90;99.90;;;;;;5025364;28;20204;-69
2021/09/27 07:27:53;;;;;;;17.40;14.23;;;18.00;99.90;;;;;;5026848;28;20510;-70
2021/09/27 07:30:20;;;;;;;16.70;14.10;;;17.90;99.90;;;;;;5028445;28;20419;-70
2021/09/27 07:32:46;;;;;;;15.43;13.07;;;18.20;99.90;;;;;;5026325;28;20811;-66
2021/09/27 07:35:14;;;;;;;15.23;13.27;;;18.20;99.90;;;;;;5027181;28;20434;-64
2021/09/27 07:37:40;;;;;;;16.00;13.80;;;18.10;99.90;;;;;;5010645;28;20857;-65
2021/09/27 07:40:14;;;;;;;16.27;12.10;;;18.20;99.90;;;;;;5030425;28;20492;-69
2021/09/27 07:42:40;;;;;;;15.93;12.20;;;18.20;99.90;;;;;;5028114;28;20414;-69
2021/09/27 07:45:08;;;;;;;16.13;12.60;;;18.20;99.90;;;;;;5025246;28;20988;-69
2021/09/27 07:47:36;;;;;;;16.10;12.87;;;18.30;99.90;;;;;;5027292;28;20538;-70
2021/09/27 07:50:03;;;;;;;16.10;13.37;;;18.30;99.90;;;;;;5028438;28;20485;-70
2021/09/27 07:52:29;;;;;;;15.70;12.53;;;18.40;99.90;;;;;;5027670;28;20431;-70
2021/09/27 07:54:54;;;;;;;14.80;12.13;;;18.50;99.90;;;;;;5025728;28;21036;-70
2021/09/27 07:57:20;;;;;;;17.33;14.00;;;18.40;99.90;;;;;;5029614;28;20694;-67
2021/09/27 07:59:47;;;;;;;19.73;12.97;;;18.40;99.90;;;;;;5027013;28;20207;-67
2021/09/27 08:02:18;;;;;;;15.70;12.73;;;18.40;99.90;;;;;;5009765;28;20201;-66
2021/09/27 08:04:44;;;;;;;14.07;12.43;;;18.50;99.90;;;;;;5027367;28;20506;-67
2021/09/27 08:07:09;;;;;;;16.70;12.33;;;18.60;99.90;;;;;;5008258;28;20533;-65
2021/09/27 08:09:35;;;;;;;15.90;12.17;;;18.60;99.90;;;;;;5029134;28;20481;-70
2021/09/27 08:12:01;;;;;;;15.87;12.63;;;18.60;99.90;;;;;;5023873;28;20197;-71
2021/09/27 08:14:27;;;;;;;18.63;12.63;;;18.60;99.90;;;;;;5024753;28;20292;-65
2021/09/27 08:16:52;;;;;;;16.90;13.40;;;18.50;99.90;;;;;;5027901;28;20215;-65
2021/09/27 08:19:24;;;;;;;13.80;12.03;;;18.70;99.90;;;;;;5027396;28;20188;-65
2021/09/27 08:21:50;;;;;;;18.83;12.50;;;18.70;99.90;;;;;;5026427;28;20690;-68
2021/09/27 08:24:15;;;;;;;15.30;11.73;;;18.70;99.90;;;;;;5027469;28;20490;-71
2021/09/27 08:26:42;;;;;;;18.53;13.20;;;18.80;99.90;;;;;;5024726;28;20905;-70
2021/09/27 08:29:08;;;;;;;13.20;11.80;;;18.90;99.90;;;;;;5008246;28;20244;-67
2021/09/27 08:31:34;;;;;;;17.03;11.30;;;18.90;99.90;;;;;;5026472;28;20471;-67
2021/09/27 08:33:59;;;;;;;15.53;13.00;;;18.70;99.90;;;;;;5026520;28;20284;-67
2021/09/27 08:36:27;;;;;;;14.10;12.60;;;18.80;99.90;;;;;;5027016;28;20709;-67
2021/09/27 08:38:55;;;;;;;14.50;11.50;;;18.80;99.90;;;;;;5026368;28;20614;-70
2021/09/27 08:41:41;;;;;;;13.43;11.60;;;18.80;99.90;;;;;;5009430;28;20449;-70
2021/09/27 08:44:42;;;;;;;18.40;13.47;;;18.80;99.90;;;;;;5028839;28;20412;-65
2021/09/27 08:47:35;;;;;;;14.90;10.73;;;18.80;99.90;;;;;;5027224;28;20814;-65
2021/09/27 08:50:06;;;;;;;15.47;10.70;;;18.80;99.90;;;;;;5025844;28;20892;-65
2021/09/27 08:52:36;;;;;;;14.07;10.57;;;18.90;99.90;;;;;;5023918;28;20518;-65
2021/09/27 08:55:11;;;;;;;11.93;9.83;;;18.90;99.90;;;;;;5030089;28;20432;-69
2021/09/27 08:58:07;;;;;;;12.40;9.43;;;18.90;99.90;;;;;;5022010;28;20470;-69
2021/09/27 09:00:59;;;;;;;10.13;9.13;;;19.00;99.90;;;;;;5023399;28;20412;-69
2021/09/27 09:03:36;;;;;;;10.33;8.60;;;19.00;99.90;;;;;;5025912;28;20501;-68
2021/09/27 09:06:14;;;;;;;10.30;7.90;;;19.00;99.90;;;;;;5025678;28;20466;-70
2021/09/27 09:08:55;;;;;;;9.87;8.57;;;19.00;99.90;;;;;;5006651;28;20447;-70
2021/09/27 09:11:53;;;;;;;11.67;7.80;;;19.10;99.90;;;;;;5027974;28;20931;-66
2021/09/27 09:14:40;;;;;;;11.07;8.87;;;19.20;99.90;;;;;;5026473;28;20510;-67
2021/09/27 09:17:18;;;;;;;9.57;7.70;;;19.20;99.90;;;;;;5020743;28;20471;-67
2021/09/27 09:19:45;;;;;;;9.73;7.70;;;19.30;99.90;;;;;;5024012;28;20803;-67
2021/09/27 09:22:23;;;;;;;8.93;8.00;;;19.40;99.90;;;;;;5026705;28;20426;-67
2021/09/27 09:24:49;;;;;;;8.03;7.20;;;19.50;99.90;;;;;;5022310;28;21063;-66
2021/09/27 09:27:15;;;;;;;9.53;8.30;;;19.50;99.90;;;;;;5025539;28;20482;-69
2021/09/27 09:29:44;;;;;;;8.40;7.40;;;19.60;99.90;;;;;;5028479;28;20462;-66
2021/09/27 09:32:18;;;;;;;9.60;8.37;;;19.60;99.90;;;;;;5023606;28;20571;-66
2021/09/27 09:34:45;;;;;;;10.07;9.07;;;19.70;99.90;;;;;;5024286;28;20968;-64
2021/09/27 09:37:38;;;;;;;11.23;8.27;;;19.80;99.90;;;;;;5025702;28;20842;-67
2021/09/27 09:40:09;;;;;;;11.30;8.10;;;19.80;99.90;;;;;;5018257;28;20798;-67
2021/09/27 09:42:35;;;;;;;8.40;7.50;;;19.90;99.90;;;;;;5025497;28;20446;-67
2021/09/27 09:45:24;;;;;;;8.87;7.97;;;19.90;99.90;;;;;;5024249;28;20416;-67
2021/09/27 09:47:50;;;;;;;9.80;7.80;;;19.90;99.90;;;;;;5023919;28;20459;-67
2021/09/27 09:50:22;;;;;;;12.30;9.00;;;20.00;99.90;;;;;;5025511;28;20441;-66
2021/09/27 09:52:49;;;;;;;8.83;7.80;;;20.10;99.90;;;;;;5023972;28;20715;-68
2021/09/27 09:55:45;;;;;;;9.30;7.83;;;20.10;99.90;;;;;;5025608;28;20501;-67
2021/09/27 09:58:34;;;;;;;9.97;8.10;;;20.20;99.90;;;;;;5022866;28;20475;-69
2021/09/27 10:01:26;;;;;;;10.33;7.10;;;20.20;99.90;;;;;;5024370;28;20476;-68
2021/09/27 10:04:10;;;;;;;8.33;7.43;;;20.20;99.90;;;;;;5008796;28;20462;-67
2021/09/27 10:06:37;;;;;;;7.90;6.77;;;20.30;99.90;;;;;;5022545;28;20702;-67
2021/09/27 10:09:06;;;;;;;7.57;6.77;;;20.40;99.90;;;;;;5023395;28;20517;-69
2021/09/27 10:11:42;;;;;;;7.93;6.90;;;20.40;99.90;;;;;;5024876;28;20423;-68
2021/09/27 10:14:22;;;;;;;8.10;7.30;;;20.50;99.90;;;;;;5020672;28;20506;-66
2021/09/27 10:16:54;;;;;;;8.57;6.70;;;20.60;99.90;;;;;;5021929;28;20488;-66
2021/09/27 10:19:30;;;;;;;8.30;6.90;;;20.70;99.90;;;;;;5024880;28;20431;-66
2021/09/27 10:22:04;;;;;;;6.27;5.60;;;20.70;99.90;;;;;;5020370;28;20532;-66
2021/09/27 10:24:46;;;;;;;6.83;6.23;;;20.80;99.90;;;;;;5025110;28;20474;-66
2021/09/27 10:27:30;;;;;;;6.57;5.70;;;20.80;99.90;;;;;;5024266;28;20482;-66
2021/09/27 10:29:58;;;;;;;7.30;6.07;;;20.90;99.90;;;;;;5024592;28;20426;-67
2021/09/27 10:32:37;;;;;;;5.17;4.60;;;20.90;99.90;;;;;;5025239;28;20454;-67
2021/09/27 10:35:14;;;;;;;6.17;5.57;;;21.00;99.90;;;;;;5023547;28;20430;-67
2021/09/27 10:37:45;;;;;;;6.03;5.13;;;21.00;99.90;;;;;;5024337;28;20504;-66
2021/09/27 10:40:16;;;;;;;5.50;4.90;;;21.00;99.90;;;;;;5024347;28;21021;-70
2021/09/27 10:42:48;;;;;;;5.63;5.13;;;21.10;99.90;;;;;;5023943;28;20416;-70
2021/09/27 10:45:19;;;;;;;5.53;5.03;;;21.20;99.90;;;;;;5020704;28;20457;-69
2021/09/27 10:47:54;;;;;;;7.63;4.97;;;21.30;99.90;;;;;;5005899;28;20467;-69
2021/09/27 10:50:32;;;;;;;6.20;5.60;;;21.40;99.90;;;;;;5023928;28;20422;-69
2021/09/27 10:53:15;;;;;;;7.40;5.37;;;21.60;99.90;;;;;;5007654;28;20486;-70
2021/09/27 10:55:44;;;;;;;6.20;5.70;;;21.70;99.90;;;;;;5006808;28;20463;-67
2021/09/27 10:58:11;;;;;;;5.37;4.87;;;21.80;99.90;;;;;;5023094;28;20463;-68
2021/09/27 11:00:54;;;;;;;5.63;5.13;;;21.80;99.90;;;;;;5023381;28;20458;-66
2021/09/27 11:03:44;;;;;;;10.23;8.70;;;21.80;99.90;;;;;;5025300;28;20462;-66
2021/09/27 11:06:29;;;;;;;5.30;4.70;;;21.90;99.90;;;;;;5024264;28;20418;-66
2021/09/27 11:09:30;;;;;;;6.73;5.30;;;22.00;99.90;;;;;;5021814;28;20517;-67
2021/09/27 11:12:15;;;;;;;6.30;5.60;;;22.00;99.90;;;;;;5023570;28;20427;-66
2021/09/27 11:15:01;;;;;;;6.10;5.50;;;22.00;99.90;;;;;;5028177;28;20512;-69
2021/09/27 11:17:40;;;;;;;5.37;4.87;;;22.00;99.90;;;;;;5023116;28;20479;-70
2021/09/27 11:20:12;;;;;;;5.83;5.13;;;22.10;99.90;;;;;;5020968;28;20466;-69
2021/09/27 11:22:44;;;;;;;5.70;4.93;;;22.20;99.90;;;;;;5023672;28;20470;-70
2021/09/27 11:25:33;;;;;;;6.50;5.70;;;22.30;99.90;;;;;;5007716;28;20849;-67
2021/09/27 11:28:03;;;;;;;5.13;4.67;;;22.50;99.90;;;;;;5023290;28;20451;-66
2021/09/27 11:30:38;;;;;;;8.07;5.63;;;22.50;99.90;;;;;;5026567;28;20706;-69
2021/09/27 11:33:11;;;;;;;5.50;5.00;;;22.50;99.90;;;;;;5024228;28;20433;-69
2021/09/27 11:35:43;;;;;;;5.17;4.47;;;22.60;99.90;;;;;;5022431;28;20439;-69
2021/09/27 11:38:27;;;;;;;4.77;4.30;;;22.70;99.90;;;;;;5025171;28;20915;-70
2021/09/27 11:41:08;;;;;;;4.97;4.47;;;22.60;99.90;;;;;;5023732;28;20423;-69
2021/09/27 11:43:55;;;;;;;4.80;4.33;;;22.70;99.90;;;;;;5026491;28;20881;-66
2021/09/27 11:46:50;;;;;;;5.53;4.10;;;22.80;99.90;;;;;;5022980;28;20450;-67
2021/09/27 11:49:26;;;;;;;4.20;3.80;;;23.00;99.90;;;;;;5024663;28;20470;-67
2021/09/27 11:52:27;;;;;;;3.90;3.60;;;23.10;99.90;;;;;;5003919;28;20431;-68
2021/09/27 11:55:03;;;;;;;4.03;3.63;;;23.20;99.90;;;;;;5022242;28;20891;-68
2021/09/27 11:57:41;;;;;;;4.43;4.03;;;23.30;99.90;;;;;;5028674;28;21026;-67
2021/09/27 12:00:11;;;;;;;4.27;3.87;;;23.30;99.90;;;;;;5026965;28;20842;-66
2021/09/27 12:03:06;;;;;;;4.57;3.97;;;23.40;99.90;;;;;;5023063;28;20446;-67
2021/09/27 12:05:41;;;;;;;4.20;3.77;;;24.00;99.90;;;;;;5027675;28;20556;-67
2021/09/27 12:08:24;;;;;;;5.70;3.93;;;24.40;99.90;;;;;;5025820;28;20935;-66
2021/09/27 12:10:58;;;;;;;3.70;3.40;;;24.70;99.90;;;;;;5022529;28;20449;-65
2021/09/27 12:13:48;;;;;;;4.00;3.60;;;24.80;99.90;;;;;;5024299;28;20686;-70
2021/09/27 12:16:22;;;;;;;4.50;4.10;;;25.00;99.90;;;;;;5006866;28;20435;-70
2021/09/27 12:18:52;;;;;;;5.40;3.80;;;25.30;99.90;;;;;;5030064;28;20458;-70
2021/09/27 12:21:31;;;;;;;4.13;3.70;;;26.00;99.90;;;;;;5025820;28;20443;-65
2021/09/27 12:24:09;;;;;;;3.67;3.37;;;26.50;99.90;;;;;;5026866;28;20428;-65
2021/09/27 12:26:46;;;;;;;4.37;4.00;;;26.60;99.90;;;;;;5025293;28;20451;-65
2021/09/27 12:29:22;;;;;;;3.97;3.67;;;27.00;99.90;;;;;;5025084;28;20431;-63
2021/09/27 12:31:56;;;;;;;4.30;3.90;;;27.40;99.90;;;;;;5025241;28;20501;-70
2021/09/27 12:34:46;;;;;;;4.80;4.00;;;28.10;99.90;;;;;;5024590;28;20435;-66
2021/09/27 12:37:15;;;;;;;3.77;3.37;;;28.20;99.90;;;;;;5025386;28;20921;-66
2021/09/27 12:39:42;;;;;;;3.90;3.60;;;28.60;99.90;;;;;;5027665;28;20475;-64
2021/09/27 12:42:15;;;;;;;5.20;4.70;;;28.50;99.90;;;;;;5026361;28;20434;-65
2021/09/27 12:44:45;;;;;;;4.30;3.90;;;27.90;99.90;;;;;;5024002;28;20450;-64
2021/09/27 12:47:11;;;;;;;9.37;3.93;;;27.70;99.90;;;;;;5025594;28;20445;-67
2021/09/27 12:49:42;;;;;;;5.47;4.97;;;27.40;99.90;;;;;;5009181;28;20424;-68
2021/09/27 12:52:11;;;;;;;4.80;3.77;;;27.30;99.90;;;;;;5022373;28;20202;-67
2021/09/27 12:54:46;;;;;;;4.47;4.07;;;27.00;99.90;;;;;;5025763;28;20533;-70
2021/09/27 12:57:27;;;;;;;5.23;4.73;;;27.00;99.90;;;;;;5027199;28;20544;-66
2021/09/27 12:59:55;;;;;;;5.20;4.10;;;27.10;99.90;;;;;;5024248;28;20430;-68
2021/09/27 13:02:28;;;;;;;5.70;4.00;;;27.10;99.90;;;;;;5026936;28;20438;-68
2021/09/27 13:05:11;;;;;;;4.67;4.10;;;27.00;99.90;;;;;;5024540;28;20842;-68
2021/09/27 13:07:47;;;;;;;4.80;3.67;;;26.90;99.90;;;;;;5022105;28;20497;-69
2021/09/27 13:10:29;;;;;;;4.07;3.67;;;26.80;99.90;;;;;;5008105;28;20798;-68
2021/09/27 13:13:14;;;;;;;4.00;3.60;;;26.70;99.90;;;;;;5023823;28;20434;-67
2021/09/27 13:15:51;;;;;;;4.40;4.00;;;26.30;99.90;;;;;;5023313;28;20419;-67
2021/09/27 13:18:36;;;;;;;4.87;3.63;;;26.20;99.90;;;;;;5023785;28;20459;-67
2021/09/27 13:21:32;;;;;;;3.63;3.27;;;26.10;99.90;;;;;;5024990;28;20435;-67
2021/09/27 13:24:07;;;;;;;4.83;4.17;;;25.80;99.90;;;;;;5025231;28;20498;-67
2021/09/27 13:26:42;;;;;;;4.43;3.70;;;25.60;99.90;;;;;;5025740;28;20925;-68
2021/09/27 13:29:31;;;;;;;4.30;4.00;;;25.50;99.90;;;;;;5023484;28;20832;-65